Summerland Sweets XC 3K

Back to 2016 XC Races

2016 XC Race

2016-10-02, Summerland, 3.2 km
# Name City Age GP CP Time Pace
1 Mitchell Bond Vernon M10-12 0:13:15 04:08
2 Simon Bergen Summerland M10-12 0:13:17 04:09
3 Tayla Ingram Summerland F10-12 0:14:04 04:23
4 Isaac Bergen Summerland M10-12 0:14:08 04:25
5 Ben Miller Penticton M13-15 4 0:14:42 04:35
6 Brody Wright Vernon M13-15 5 0:14:43 04:35
7 Pascal Benoit Summerland M10-12 6 4 0:14:55 04:39
8 Arlo Kast Summerland M10-12 7 5 0:14:58 04:40
9 Duncan Blackburn Kelowna M10-12 8 6 0:15:39 04:53
10 Olivia Harrold Summerland F13-15 0:16:01 05:00
11 Rowan Duthie Penticton M10-12 9 7 0:16:03 05:00
12 Alistair Martin Summerland M01-09 10 0:16:08 05:02
13 Emily Jell Summerland F10-12 0:16:16 05:05
14 Isla Kast Summerland F01-09 4 0:16:41 05:12
15 Rowan Musselman Bell Penticton M10-12 11 8 0:16:41 05:12
16 Nathan Michael Penticton M01-09 12 0:16:50 05:15
17 Caitlyn Michael Penticton F10-12 5 0:17:08 05:21
18 Maximilian Patenaude Summerland M01-09 13 0:17:09 05:21
19 Madison Helm Penticton F13-15 6 0:17:10 05:21
20 Isabella Cotton West Kelowna F10-12 7 4 0:17:29 05:27
21 Emily Tatham Penticton F13-15 8 0:17:41 05:31
22 Rupert Haverkamp Summerland M01-09 14 4 0:18:09 05:40
23 Richard Haverkamp Summerland M16-99+ 15 0:18:10 05:40
24 Dawson Bond Vernon M01-09 16 5 0:18:23 05:44
25 Sophie Tatham Penticton F01-09 9 0:18:30 05:46
26 Carmen Harrold Summerland F10-12 10 5 0:18:47 05:52
27 Diego Cotton West Kelowna M01-09 17 6 0:19:36 06:07
28 Sloane Betker Kelowna F01-09 11 0:20:01 06:15
29 Payton Betker Kelowna F01-09 12 4 0:20:02 06:15
30 Leevi Kontkanen Penticton M10-12 18 9 0:20:21 06:21
31 Katie Jell Summerland F01-09 13 5 0:20:25 06:22
32 Casey Mcdermid Summerland M10-12 19 10 0:21:20 06:40
33 Kyden Hurst Penticton F01-09 14 6 0:21:23 06:40
34 Hayden Porcellato Penticton F01-09 15 7 0:21:24 06:41
35 Thomas Wilkie Penticton M01-09 20 7 0:21:27 06:42
36 Fiona Girard Summerland F10-12 16 6 0:21:53 06:50
37 Cadence Quigley Kelowna F01-09 17 8 0:21:54 06:50
38 Rylie Mahaffy Penticton F10-12 18 7 0:22:21 06:59
39 Markus Kontkanen Penticton M01-09 21 8 0:22:24 07:00
40 James Devlin Penticton M01-09 22 9 0:22:25 07:00
41 Rylee Blais-Roy Penticton F10-12 19 8 0:22:39 07:04
42 Sasha Melo Penticton F01-09 20 9 0:22:48 07:07
43 Jamie Melo Penticton M16-99+ 23 0:22:48 07:07
44 Ayla Musselman Bell Penticton F01-09 21 10 0:22:53 07:09
45 Olivia Evans Penticton F01-09 22 11 0:22:56 07:10
46 Lesley Evans Penticton F16-99+ 23 0:22:57 07:10
47 Evelyn Martin Summerland F01-09 24 12 0:23:28 07:20
48 Payton Mitchell Summerland F01-09 25 12 0:23:28 07:20
49 Keith Martin Summerland M16-99+ 24 0:23:29 07:20
50 Don Bergstrom Summerland M16-99+ 25 4 0:23:31 07:20
51 Mackenzie Stevens Summerland F10-12 26 9 0:24:04 07:31
52 Kyle Stevens Summerland M16-99+ 26 5 0:24:05 07:31
53 Silvie Cormillot Summerland F13-15 27 4 0:24:06 07:31
54 Peter Cormillot Summerland M16-99+ 27 6 0:24:12 07:33
55 Tarrin Laviolette Summerland F01-09 28 14 0:24:42 07:43
56 Violet Porcellato Penticton F01-09 29 15 0:24:50 07:45
57 Taylor Hurst Penticton F01-09 30 16 0:25:04 07:50
58 Ann Hurst Penticton F16-99+ 31 0:25:05 07:50
59 Peyton Mahaffy Penticton M01-09 28 10 0:25:15 07:53
60 Ryan Mahaffy Penticton M16-99+ 29 7 0:25:16 07:53
61 Ashley Quigley Kelowna F01-09 32 17 0:25:43 08:02
62 Elin Kontkanen Penticton F01-09 33 18 0:25:46 08:03
63 Brienna Devlin Penticton F01-09 34 19 0:25:47 08:03
64 Amanda Kontkanen Penticton F16-99+ 35 0:25:48 08:03
65 Emerson Mitchell Summerland M01-09 30 11 0:26:33 08:17
66 Chase Knowlton Summerland M01-09 31 12 0:26:34 08:18
67 Linda Bergstrom Summerland F16-99+ 36 4 0:26:35 08:18
68 Kim Wise Summerland F16-99+ 37 4 0:26:35 08:18
69 Hazel Duke Penticton F01-09 38 20 0:27:40 08:38
70 Jessica Wilkie Penticton F01-09 39 21 0:27:41 08:39
71 Melanie Wilkie Penticton F16-99+ 40 6 0:27:41 08:39
72 Sarah Porcellato Penticton F16-99+ 41 7 0:27:42 08:39
73 Leah Evans Penticton F01-09 42 22 0:28:01 08:45
74 Tom Evans Penticton M16-99+ 32 8 0:28:03 08:45
75 Lily Devlin Penticton F01-09 43 23 0:30:46 09:36
76 Vanessa Devlin Penticton F16-99+ 44 8 0:30:46 09:36
77 Kaelin Urness Kelowna F10-12 45 10 0:31:52 09:57
78 Abigail Jerome Kelowna F10-12 46 11 0:31:53 09:57
79 Amy Hawkins Penticton F01-09 47 24 0:32:56 10:17
80 Cathy Rooke Penticton F16-99+ 48 9 0:32:56 10:17
81 Brooklyn Mcmillan Penticton F01-09 49 25 0:33:44 10:32
82 Lily Hawkins Penticton F01-09 50 26 0:35:07 10:58
83 Levi Mcmillan Penticton M01-09 33 13 0:36:33 11:25
84 Mia Stevens Summerland F01-09 51 27 0:37:41 11:46
85 Gillian Stevens Summerland F16-99+ 52 10 0:37:42 11:46
86 Sonny Duke Penticton M01-09 34 14 0:41:25 12:56
Missing or Incorrect Results